Ryong Bong 1 — 3FUW2 — position and weather

sailwx.info

Track history (hours):
 
Tides and Currents Weather Stations Pressure Air Temp Water Temp Dewpoint Dewpoint Depression Visibility Wind Speed Wind Dir Waves Ship Positions

Ryong Bong 1

Last reported at 2017-Oct-26 05:20 UTC. Time now 2017-Nov-23 22:06 UTC.
Position N 34°52' E 139°48'.
Warning: this ship's position is 28 days out of date.

Length 97 m; draft 3.8 m.

Type: Cargo ship. MMSI: 354185000.

Date/timePositionNaut miles runAvg speedWind from/ knotsBaromVisibWave heightAir tempDewpointWater temp
2017-Oct-26 05:20N 34°52' E 139°48'  
2017-Oct-23 12:13N 34°06' E 134°58'210.2
2017-Oct-23 12:00N 34°08' E 134°58'510.4
2017-Oct-23 11:29N 34°13' E 134°59'12 0.9
2017-Oct-22 22:12N 34°22' E 135°08'0 0.0
2017-Oct-21 12:00N 34°22' E 135°08'0 0.0
2017-Oct-21 11:24N 34°22' E 135°08'0 0.0
2017-Oct-21 11:00N 34°22' E 135°08'0 0.0
2017-Oct-20 20:20N 34°22' E 135°08'0 0.0
2017-Oct-20 19:50N 34°22' E 135°08'0 0.0
2017-Oct-20 19:26N 34°22' E 135°08'0 0.0
2017-Oct-20 18:50N 34°22' E 135°08'0 0.0
2017-Oct-20 18:08N 34°22' E 135°08'0 0.0
2017-Oct-20 17:38N 34°22' E 135°08'0 0.0
2017-Oct-20 17:26N 34°22' E 135°08'0 0.0
2017-Oct-20 16:32N 34°22' E 135°08'0 0.0
2017-Oct-20 16:20N 34°22' E 135°08'0 0.0
2017-Oct-20 15:56N 34°22' E 135°08'0 0.0
2017-Oct-20 15:26N 34°22' E 135°08'0 0.0
2017-Oct-20 14:50N 34°22' E 135°08'0 0.0
2017-Oct-20 14:26N 34°22' E 135°08'1 1.3
2017-Oct-20 13:28N 34°23' E 135°09'4 7.7
2017-Oct-20 13:00N 34°26' E 135°07'4 9.0
2017-Oct-20 12:30N 34°30' E 135°06'4 8.8
2017-Oct-20 12:00N 34°34' E 135°04'3 6.9
2017-Oct-20 11:30N 34°37' E 135°01'  
Track history (hours):
 
Tides and Currents Weather Stations Pressure Air Temp Water Temp Dewpoint Dewpoint Depression Visibility Wind Speed Wind Dir Waves Ship Positions

Ryong Bong 1

Last reported at 2017-Oct-26 05:20 UTC. Time now 2017-Nov-23 22:06 UTC.
Position N 34°52' E 139°48'.
Warning: this ship's position is 28 days out of date.

Length 97 m; draft 3.8 m.

Type: Cargo ship. MMSI: 354185000.

Date/timePositionNaut miles runAvg speedWind from/ knotsBaromVisibWave heightAir tempDewpointWater temp
2017-Oct-26 05:20N 34°52' E 139°48'  
2017-Oct-23 12:13N 34°06' E 134°58'210.2
2017-Oct-23 12:00N 34°08' E 134°58'510.4
2017-Oct-23 11:29N 34°13' E 134°59'12 0.9
2017-Oct-22 22:12N 34°22' E 135°08'0 0.0
2017-Oct-21 12:00N 34°22' E 135°08'0 0.0
2017-Oct-21 11:24N 34°22' E 135°08'0 0.0
2017-Oct-21 11:00N 34°22' E 135°08'0 0.0
2017-Oct-20 20:20N 34°22' E 135°08'0 0.0
2017-Oct-20 19:50N 34°22' E 135°08'0 0.0
2017-Oct-20 19:26N 34°22' E 135°08'0 0.0
2017-Oct-20 18:50N 34°22' E 135°08'0 0.0
2017-Oct-20 18:08N 34°22' E 135°08'0 0.0
2017-Oct-20 17:38N 34°22' E 135°08'0 0.0
2017-Oct-20 17:26N 34°22' E 135°08'0 0.0
2017-Oct-20 16:32N 34°22' E 135°08'0 0.0
2017-Oct-20 16:20N 34°22' E 135°08'0 0.0
2017-Oct-20 15:56N 34°22' E 135°08'0 0.0
2017-Oct-20 15:26N 34°22' E 135°08'0 0.0
2017-Oct-20 14:50N 34°22' E 135°08'0 0.0
2017-Oct-20 14:26N 34°22' E 135°08'1 1.3
2017-Oct-20 13:28N 34°23' E 135°09'4 7.7
2017-Oct-20 13:00N 34°26' E 135°07'4 9.0
2017-Oct-20 12:30N 34°30' E 135°06'4 8.8
2017-Oct-20 12:00N 34°34' E 135°04'3 6.9
2017-Oct-20 11:30N 34°37' E 135°01'  

Dump ship's entire track history